createdAt,value
2023-01-26T00:01:37.472Z,18.80
2023-01-26T00:04:05.564Z,19.88
2023-01-26T00:06:32.968Z,18.42
2023-01-26T00:09:00.216Z,18.98
2023-01-26T00:11:29.768Z,18.20
2023-01-26T00:13:58.684Z,16.75
2023-01-26T00:16:27.469Z,18.23
2023-01-26T00:18:55.077Z,17.52
2023-01-26T00:21:24.066Z,19.02
2023-01-26T00:23:52.480Z,20.10
2023-01-26T00:26:24.880Z,17.02
2023-01-26T00:28:53.401Z,16.65
2023-01-26T00:31:24.168Z,17.48
2023-01-26T00:33:56.942Z,16.65
2023-01-26T00:36:24.718Z,16.35
2023-01-26T00:38:54.515Z,17.15
2023-01-26T00:41:43.304Z,17.20
2023-01-26T00:44:10.643Z,15.43
2023-01-26T00:46:38.348Z,15.95
2023-01-26T00:49:07.763Z,16.42
2023-01-26T00:51:34.990Z,16.95
2023-01-26T00:54:04.771Z,14.82
2023-01-26T00:56:32.377Z,16.85
2023-01-26T00:58:59.725Z,15.18
2023-01-26T01:01:27.011Z,15.15
2023-01-26T01:03:54.527Z,16.33
2023-01-26T01:06:21.921Z,15.65
2023-01-26T01:08:51.299Z,14.50
2023-01-26T01:11:18.622Z,14.77
2023-01-26T01:13:46.332Z,14.60
2023-01-26T01:16:16.686Z,15.30
2023-01-26T01:18:44.339Z,15.27
2023-01-26T01:21:15.322Z,13.60
2023-01-26T01:23:43.728Z,14.68
2023-01-26T01:26:11.618Z,14.98
2023-01-26T01:28:39.405Z,13.80
2023-01-26T01:31:10.965Z,14.18
2023-01-26T01:33:38.797Z,12.85
2023-01-26T01:36:10.319Z,13.13
2023-01-26T01:38:37.788Z,12.57
2023-01-26T01:41:05.587Z,14.25
2023-01-26T01:43:33.451Z,12.50
2023-01-26T01:46:03.272Z,12.40
2023-01-26T01:48:43.330Z,14.88
2023-01-26T01:51:37.281Z,14.00
2023-01-26T01:54:10.929Z,12.35
2023-01-26T01:56:44.154Z,12.57
2023-01-26T01:59:13.274Z,15.05
2023-01-26T02:01:42.061Z,12.25
2023-01-26T02:04:10.068Z,13.68
2023-01-26T02:06:46.272Z,14.35
2023-01-26T02:09:34.793Z,14.82
2023-01-26T02:12:07.327Z,14.52
2023-01-26T02:14:34.747Z,14.50
2023-01-26T02:17:02.036Z,13.60
2023-01-26T02:19:41.455Z,14.57
2023-01-26T02:22:24.093Z,14.77
2023-01-26T02:24:56.964Z,14.20
2023-01-26T02:27:24.916Z,14.27
2023-01-26T02:29:54.329Z,15.63
2023-01-26T02:32:21.706Z,15.55
2023-01-26T02:34:56.189Z,15.73
2023-01-26T02:37:24.488Z,15.35
2023-01-26T02:40:07.609Z,15.68
2023-01-26T02:42:42.170Z,16.52
2023-01-26T02:45:16.184Z,14.60
2023-01-26T02:47:45.469Z,16.10
2023-01-26T02:50:13.971Z,16.02
2023-01-26T02:52:43.625Z,15.93
2023-01-26T02:55:27.393Z,16.10
2023-01-26T02:58:00.919Z,16.30
2023-01-26T03:00:37.366Z,16.52
2023-01-26T03:03:13.788Z,16.52
2023-01-26T03:05:41.483Z,15.52
2023-01-26T03:08:08.837Z,15.55
2023-01-26T03:10:38.033Z,15.73
2023-01-26T03:13:07.434Z,15.15
2023-01-26T03:15:43.943Z,15.90
2023-01-26T03:18:34.403Z,15.30
2023-01-26T03:21:22.281Z,15.98
2023-01-26T03:24:08.489Z,16.27
2023-01-26T03:26:56.081Z,15.43
2023-01-26T03:29:23.657Z,16.33
2023-01-26T03:31:53.358Z,16.35
2023-01-26T03:34:21.268Z,16.02
2023-01-26T03:36:49.455Z,15.25
2023-01-26T03:39:37.077Z,15.85
2023-01-26T03:42:23.490Z,16.48
2023-01-26T03:45:10.408Z,15.73
2023-01-26T03:47:59.326Z,15.65
2023-01-26T03:50:45.860Z,15.68
2023-01-26T03:53:37.555Z,14.73
2023-01-26T03:56:22.020Z,15.93
2023-01-26T03:58:53.183Z,15.35
2023-01-26T04:01:28.900Z,14.90
2023-01-26T04:04:17.674Z,15.60
2023-01-26T04:07:07.681Z,14.98
2023-01-26T04:09:41.863Z,15.07
2023-01-26T04:12:11.957Z,14.80
2023-01-26T04:15:07.644Z,15.57
2023-01-26T04:17:53.452Z,14.75
2023-01-26T04:20:39.450Z,15.18
2023-01-26T04:23:06.795Z,14.13
2023-01-26T04:25:35.962Z,15.15
2023-01-26T04:28:03.221Z,12.90
2023-01-26T04:30:30.952Z,14.40
2023-01-26T04:32:59.388Z,13.77
2023-01-26T04:35:26.868Z,13.25
2023-01-26T04:37:54.717Z,14.63
2023-01-26T04:40:23.283Z,15.35
2023-01-26T04:42:50.601Z,15.15
2023-01-26T04:45:18.042Z,14.20
2023-01-26T04:47:46.073Z,15.60
2023-01-26T04:50:16.103Z,14.15
2023-01-26T04:52:45.115Z,13.50
2023-01-26T04:55:12.551Z,16.15
2023-01-26T04:57:42.660Z,16.75
2023-01-26T05:00:12.439Z,14.32
2023-01-26T05:02:41.054Z,15.00
2023-01-26T05:05:10.820Z,15.23
2023-01-26T05:07:38.407Z,16.45
2023-01-26T05:10:06.213Z,13.98
2023-01-26T05:12:43.224Z,15.43
2023-01-26T05:15:28.612Z,17.58
2023-01-26T05:18:07.308Z,15.38
2023-01-26T05:20:53.848Z,16.20
2023-01-26T05:23:26.853Z,16.25
2023-01-26T05:26:26.361Z,15.63
2023-01-26T05:29:04.225Z,16.35
2023-01-26T05:31:32.966Z,18.23
2023-01-26T05:34:00.293Z,18.02
2023-01-26T05:36:27.909Z,14.23
2023-01-26T05:38:55.835Z,15.13
2023-01-26T05:41:27.579Z,18.50
2023-01-26T05:44:10.887Z,16.13
2023-01-26T05:46:52.062Z,16.75
2023-01-26T05:49:19.615Z,15.55
2023-01-26T05:51:47.504Z,16.30
2023-01-26T05:54:15.756Z,14.40
2023-01-26T05:56:43.110Z,14.07
2023-01-26T05:59:10.498Z,13.80
2023-01-26T06:01:39.580Z,15.90
2023-01-26T06:06:43.007Z,13.48
2023-01-26T06:09:37.026Z,15.02
2023-01-26T06:12:18.168Z,12.82
2023-01-26T06:17:35.764Z,12.20
2023-01-26T06:20:07.254Z,14.40
2023-01-26T06:22:40.648Z,14.57
2023-01-26T06:25:08.534Z,12.40
2023-01-26T06:27:36.330Z,12.68
2023-01-26T06:30:11.886Z,9.95
2023-01-26T06:32:41.034Z,5.93
2023-01-26T06:35:08.900Z,6.32
2023-01-26T06:37:36.882Z,6.00
2023-01-26T06:40:06.095Z,5.18
2023-01-26T06:42:35.087Z,6.25
2023-01-26T06:45:02.668Z,5.32
2023-01-26T06:48:01.273Z,6.15
2023-01-26T06:50:34.010Z,5.80
2023-01-26T06:53:04.534Z,5.93
2023-01-26T06:55:46.096Z,6.28
2023-01-26T06:58:34.361Z,6.10
2023-01-26T07:01:22.839Z,5.57
2023-01-26T07:03:51.590Z,5.50
2023-01-26T07:06:19.202Z,6.00
2023-01-26T07:08:47.010Z,5.30
2023-01-26T07:11:17.095Z,5.15
2023-01-26T07:13:44.408Z,7.82
2023-01-26T07:16:14.720Z,5.97
2023-01-26T07:18:42.648Z,6.40
2023-01-26T07:21:13.002Z,6.40
2023-01-26T07:23:43.036Z,5.05
2023-01-26T07:26:15.654Z,6.55
2023-01-26T07:28:43.113Z,5.88
2023-01-26T07:31:12.005Z,5.72
2023-01-26T07:33:42.000Z,6.05
2023-01-26T07:36:11.350Z,5.47
2023-01-26T07:38:39.014Z,5.32
2023-01-26T07:41:10.206Z,5.75
2023-01-26T07:43:39.023Z,5.68
2023-01-26T07:46:10.837Z,5.82
2023-01-26T07:48:38.996Z,4.47
2023-01-26T07:51:09.222Z,5.50
2023-01-26T07:53:41.615Z,5.60
2023-01-26T07:56:16.059Z,4.72
2023-01-26T07:58:43.373Z,5.47
2023-01-26T08:01:14.777Z,6.63
2023-01-26T08:03:42.669Z,5.45
2023-01-26T08:06:12.447Z,4.00
2023-01-26T08:08:42.654Z,5.13
2023-01-26T08:11:11.737Z,5.00
2023-01-26T08:13:39.319Z,5.35
2023-01-26T08:16:12.939Z,5.00
2023-01-26T08:18:44.339Z,5.53
2023-01-26T08:21:13.385Z,5.55
2023-01-26T08:23:42.402Z,5.13
2023-01-26T08:26:15.801Z,6.18
2023-01-26T08:28:43.431Z,5.18
2023-01-26T08:31:14.075Z,4.57
2023-01-26T08:36:15.773Z,4.32
2023-01-26T08:38:43.608Z,5.60
2023-01-26T08:41:12.066Z,4.90
2023-01-26T08:43:39.858Z,4.43
2023-01-26T08:46:09.910Z,5.10
2023-01-26T08:48:37.558Z,4.82
2023-01-26T08:51:07.003Z,5.35
2023-01-26T08:53:37.984Z,5.28
2023-01-26T08:56:07.779Z,4.07
2023-01-26T08:58:36.041Z,5.43
2023-01-26T09:01:07.190Z,4.15
2023-01-26T09:03:35.563Z,5.40
2023-01-26T09:06:04.783Z,4.43
2023-01-26T09:08:32.704Z,4.78
2023-01-26T09:11:06.285Z,4.93
2023-01-26T09:13:33.766Z,5.82
2023-01-26T09:16:04.769Z,5.57
2023-01-26T09:18:32.421Z,4.68
2023-01-26T09:21:04.512Z,4.72
2023-01-26T09:23:33.690Z,5.43
2023-01-26T09:26:01.267Z,5.30
2023-01-26T09:28:29.488Z,3.95
2023-01-26T09:30:57.136Z,5.50
2023-01-26T09:33:25.390Z,3.58
2023-01-26T09:35:52.676Z,4.22
2023-01-26T09:38:20.248Z,4.30
2023-01-26T09:41:33.276Z,5.15
2023-01-26T09:44:05.751Z,4.95
2023-01-26T09:46:58.185Z,5.43
2023-01-26T09:50:12.485Z,4.68
2023-01-26T09:52:53.790Z,4.10
2023-01-26T09:55:23.104Z,5.45
2023-01-26T09:57:56.788Z,3.50
2023-01-26T10:00:48.927Z,3.90
2023-01-26T10:03:43.838Z,3.97
2023-01-26T10:06:31.844Z,3.67
2023-01-26T10:09:37.243Z,3.92
2023-01-26T10:12:28.525Z,4.18
2023-01-26T10:15:07.199Z,4.47
2023-01-26T10:17:39.286Z,3.67
2023-01-26T10:20:22.841Z,4.45
2023-01-26T10:22:57.596Z,4.15
2023-01-26T10:25:41.042Z,5.10
2023-01-26T10:28:20.793Z,4.82
2023-01-26T10:30:49.368Z,3.83
2023-01-26T10:33:37.260Z,3.92
2023-01-26T10:36:10.865Z,3.17
2023-01-26T10:38:38.191Z,3.33
2023-01-26T10:41:09.979Z,4.05
2023-01-26T10:43:42.587Z,3.50
2023-01-26T10:46:38.228Z,4.70
2023-01-26T10:49:16.390Z,3.97
2023-01-26T10:51:46.558Z,2.85
2023-01-26T10:54:24.151Z,3.88
2023-01-26T10:56:55.238Z,3.28
2023-01-26T10:59:39.127Z,3.95
2023-01-26T11:02:12.887Z,4.13
2023-01-26T11:04:42.219Z,4.38
2023-01-26T11:07:26.575Z,3.13
2023-01-26T11:09:55.107Z,3.28
2023-01-26T11:12:25.819Z,2.85
2023-01-26T11:15:21.172Z,3.20
2023-01-26T11:18:03.482Z,4.28
2023-01-26T11:20:49.276Z,3.58
2023-01-26T11:23:39.095Z,3.10
2023-01-26T11:26:31.609Z,2.33
2023-01-26T11:29:29.928Z,2.95
2023-01-26T11:32:32.754Z,2.90
2023-01-26T11:35:31.667Z,2.85
2023-01-26T11:38:16.216Z,3.00
2023-01-26T11:40:51.432Z,2.40
2023-01-26T11:43:21.390Z,2.80
2023-01-26T11:46:01.727Z,2.47
2023-01-26T11:48:53.916Z,3.65
2023-01-26T11:51:36.363Z,3.28
2023-01-26T11:55:02.106Z,2.42
2023-01-26T11:57:43.723Z,3.22
2023-01-26T12:00:30.217Z,3.15
2023-01-26T12:03:19.975Z,2.90
2023-01-26T12:05:53.498Z,2.80
2023-01-26T12:08:29.556Z,2.63
2023-01-26T12:11:19.640Z,2.90
2023-01-26T12:14:00.081Z,3.78
2023-01-26T12:16:45.428Z,2.63
2023-01-26T12:19:25.813Z,2.45
2023-01-26T12:21:57.619Z,2.83
2023-01-26T12:25:05.018Z,2.67
2023-01-26T12:27:58.344Z,2.38
2023-01-26T12:30:28.819Z,2.42
2023-01-26T12:32:56.323Z,2.40
2023-01-26T12:35:44.724Z,2.58
2023-01-26T12:38:33.755Z,2.25
2023-01-26T12:41:10.642Z,1.90
2023-01-26T12:43:37.942Z,3.38
2023-01-26T12:46:08.019Z,2.42
2023-01-26T12:48:46.419Z,3.10
2023-01-26T12:51:31.107Z,2.40
2023-01-26T12:54:16.136Z,2.60
2023-01-26T12:56:50.221Z,3.72
2023-01-26T12:59:46.828Z,2.40
2023-01-26T13:02:16.350Z,2.17
2023-01-26T13:04:47.959Z,2.40
2023-01-26T13:07:36.626Z,3.15
2023-01-26T13:10:25.910Z,2.45
2023-01-26T13:12:57.898Z,2.13
2023-01-26T13:15:31.738Z,2.50
2023-01-26T13:18:01.365Z,2.33
2023-01-26T13:22:57.053Z,2.05
2023-01-26T13:25:33.101Z,2.25
2023-01-26T13:28:02.966Z,2.22
2023-01-26T13:30:40.359Z,2.22
2023-01-26T13:33:24.924Z,2.60
2023-01-26T13:35:55.320Z,2.35
2023-01-26T13:38:37.466Z,3.53
2023-01-26T13:41:16.045Z,2.35
2023-01-26T13:44:05.148Z,3.63
2023-01-26T13:46:41.049Z,2.45
2023-01-26T13:49:39.660Z,2.45
2023-01-26T13:52:22.988Z,2.20
2023-01-26T13:54:52.597Z,2.75
2023-01-26T13:57:24.491Z,2.35
2023-01-26T13:59:54.249Z,2.47
2023-01-26T14:02:25.292Z,2.23
2023-01-26T14:04:55.676Z,2.30
2023-01-26T14:07:27.009Z,2.50
2023-01-26T14:09:57.303Z,3.30
2023-01-26T14:12:45.655Z,3.05
2023-01-26T14:15:29.187Z,2.75
2023-01-26T14:17:59.729Z,2.83
2023-01-26T14:20:32.039Z,3.60
2023-01-26T14:23:13.699Z,1.95
2023-01-26T14:25:44.912Z,3.05
2023-01-26T14:28:17.455Z,2.92
2023-01-26T14:30:51.178Z,2.67
2023-01-26T14:33:18.807Z,2.20
2023-01-26T14:36:00.996Z,2.33
2023-01-26T14:38:29.964Z,2.55
2023-01-26T14:40:59.708Z,3.53
2023-01-26T14:43:27.915Z,2.72
2023-01-26T14:46:10.032Z,2.30
2023-01-26T14:48:46.836Z,2.80
2023-01-26T14:51:23.276Z,3.03
2023-01-26T14:54:03.735Z,2.65
2023-01-26T14:56:38.630Z,2.80
2023-01-26T14:59:10.665Z,2.70
2023-01-26T15:01:38.668Z,3.65
2023-01-26T15:04:19.228Z,2.67
2023-01-26T15:06:46.493Z,2.40
2023-01-26T15:09:25.439Z,2.70
2023-01-26T15:12:18.171Z,2.90
2023-01-26T15:14:45.459Z,3.95
2023-01-26T15:17:33.564Z,2.70
2023-01-26T15:20:02.292Z,3.17
2023-01-26T15:22:29.813Z,2.88
2023-01-26T15:25:17.705Z,2.55
2023-01-26T15:27:53.808Z,2.88
2023-01-26T15:30:28.706Z,4.07
2023-01-26T15:32:56.501Z,3.88
2023-01-26T15:35:33.278Z,2.80
2023-01-26T15:38:10.026Z,3.15
2023-01-26T15:40:37.854Z,4.20
2023-01-26T15:43:25.099Z,3.08
2023-01-26T15:45:55.576Z,3.85
2023-01-26T15:48:24.477Z,2.80
2023-01-26T15:50:52.035Z,3.05
2023-01-26T15:53:21.936Z,3.22
2023-01-26T15:55:56.498Z,3.45
2023-01-26T15:58:24.931Z,2.88
2023-01-26T16:00:55.112Z,3.72
2023-01-26T16:03:22.738Z,3.33
2023-01-26T16:05:50.165Z,3.30
2023-01-26T16:08:18.334Z,3.00
2023-01-26T16:10:47.029Z,3.60
2023-01-26T16:13:19.648Z,3.47
2023-01-26T16:15:50.011Z,3.05
2023-01-26T16:18:18.081Z,4.38
2023-01-26T16:20:47.392Z,3.15
2023-01-26T16:23:17.555Z,2.53
2023-01-26T16:25:44.925Z,2.28
2023-01-26T16:28:12.567Z,3.38
2023-01-26T16:30:40.231Z,4.20
2023-01-26T16:33:07.547Z,3.55
2023-01-26T16:35:35.834Z,2.70
2023-01-26T16:38:04.232Z,3.60
2023-01-26T16:40:31.861Z,3.00
2023-01-26T16:42:59.450Z,4.53
2023-01-26T16:45:27.220Z,3.90
2023-01-26T16:47:57.965Z,3.40
2023-01-26T16:52:53.527Z,3.50
2023-01-26T16:55:23.488Z,4.72
2023-01-26T16:57:50.932Z,4.45
2023-01-26T17:00:28.440Z,13.48
2023-01-26T17:02:56.926Z,3.97
2023-01-26T17:05:26.846Z,3.60
2023-01-26T17:07:54.398Z,3.90
2023-01-26T17:10:24.134Z,3.60
2023-01-26T17:12:51.550Z,3.67
2023-01-26T17:15:18.963Z,4.18
2023-01-26T17:17:49.743Z,3.78
2023-01-26T17:22:47.887Z,2.78
2023-01-26T17:25:17.396Z,4.55
2023-01-26T17:27:46.675Z,3.83
2023-01-26T17:30:14.383Z,3.42
2023-01-26T17:32:42.431Z,3.97
2023-01-26T17:35:10.054Z,3.80
2023-01-26T17:37:38.226Z,4.13
2023-01-26T17:40:06.999Z,3.90
2023-01-26T17:42:35.197Z,4.03
2023-01-26T17:45:04.190Z,3.60
2023-01-26T17:47:33.573Z,5.05
2023-01-26T17:50:01.752Z,4.50
2023-01-26T17:52:31.518Z,4.25
2023-01-26T17:54:59.103Z,3.30
2023-01-26T17:57:26.399Z,3.30
2023-01-26T17:59:53.909Z,4.90
2023-01-26T18:02:21.268Z,3.88
2023-01-26T18:04:48.867Z,4.00
2023-01-26T18:07:16.248Z,3.42
2023-01-26T18:09:43.598Z,3.10
2023-01-26T18:12:10.887Z,3.17
2023-01-26T18:14:39.047Z,4.18
2023-01-26T18:17:06.421Z,4.40
2023-01-26T18:19:34.282Z,3.45
2023-01-26T18:22:01.567Z,4.57
2023-01-26T18:24:28.895Z,2.85
2023-01-26T18:26:56.298Z,3.55
2023-01-26T18:29:23.630Z,3.05
2023-01-26T18:31:51.279Z,3.80
2023-01-26T18:34:19.028Z,2.60
2023-01-26T18:36:46.276Z,2.42
2023-01-26T18:39:14.919Z,3.25
2023-01-26T18:41:43.649Z,3.38
2023-01-26T18:44:10.994Z,4.00
2023-01-26T18:46:38.773Z,2.78
2023-01-26T18:49:06.287Z,3.35
2023-01-26T18:51:35.676Z,3.13
2023-01-26T18:54:05.018Z,5.10
2023-01-26T18:56:32.548Z,3.33
2023-01-26T18:59:00.198Z,4.03
2023-01-26T19:01:27.657Z,3.35
2023-01-26T19:03:55.697Z,3.30
2023-01-26T19:06:26.612Z,4.13
2023-01-26T19:09:00.984Z,3.08
2023-01-26T19:11:32.338Z,3.08
2023-01-26T19:14:00.901Z,3.67
2023-01-26T19:16:29.194Z,3.58
2023-01-26T19:18:56.948Z,3.47
2023-01-26T19:21:27.660Z,3.55
2023-01-26T19:23:58.782Z,3.53
2023-01-26T19:26:30.837Z,3.60
2023-01-26T19:28:59.401Z,2.65
2023-01-26T19:31:27.888Z,3.35
2023-01-26T19:33:58.040Z,3.28
2023-01-26T19:36:26.979Z,3.40
2023-01-26T19:38:54.477Z,3.55
2023-01-26T19:41:22.355Z,3.47
2023-01-26T19:43:50.546Z,4.00
2023-01-26T19:46:20.313Z,2.63
2023-01-26T19:48:47.818Z,3.23
2023-01-26T19:51:22.806Z,3.97
2023-01-26T19:53:53.513Z,2.72
2023-01-26T19:58:53.031Z,3.55
2023-01-26T20:01:21.452Z,3.23
2023-01-26T20:04:04.370Z,3.17
2023-01-26T20:06:33.966Z,3.58
2023-01-26T20:09:03.484Z,4.15
2023-01-26T20:11:30.908Z,2.85
2023-01-26T20:14:01.144Z,3.80
2023-01-26T20:16:29.490Z,2.80
2023-01-26T20:18:59.349Z,7.10
2023-01-26T20:21:27.545Z,9.13
2023-01-26T20:23:56.109Z,3.78
2023-01-26T20:26:26.217Z,7.00
2023-01-26T20:28:56.920Z,5.03
2023-01-26T20:31:26.400Z,4.82
2023-01-26T20:33:53.800Z,4.35
2023-01-26T20:36:25.042Z,3.15
2023-01-26T20:38:55.403Z,4.85
2023-01-26T20:41:29.339Z,4.75
2023-01-26T20:44:01.622Z,6.53
2023-01-26T20:46:39.911Z,4.97
2023-01-26T20:49:10.194Z,4.40
2023-01-26T20:51:39.857Z,5.47
2023-01-26T20:54:07.708Z,7.25
2023-01-26T20:56:35.941Z,6.90
2023-01-26T20:59:04.517Z,3.47
2023-01-26T21:01:34.661Z,3.47
2023-01-26T21:04:02.908Z,4.45
2023-01-26T21:06:30.427Z,3.83
2023-01-26T21:08:59.863Z,4.25
2023-01-26T21:11:30.394Z,4.90
2023-01-26T21:14:00.651Z,4.72
2023-01-26T21:16:29.505Z,3.80
2023-01-26T21:18:56.893Z,5.75
2023-01-26T21:21:24.275Z,4.63
2023-01-26T21:23:51.839Z,4.30
2023-01-26T21:26:22.416Z,3.83
2023-01-26T21:31:25.357Z,3.78
2023-01-26T21:33:54.383Z,5.70
2023-01-26T21:36:24.241Z,4.90
2023-01-26T21:38:53.274Z,4.73
2023-01-26T21:41:44.783Z,4.60
2023-01-26T21:44:33.318Z,4.70
2023-01-26T21:47:04.418Z,4.97
2023-01-26T21:49:31.913Z,5.10
2023-01-26T21:52:18.477Z,4.60
2023-01-26T21:54:45.777Z,4.80
2023-01-26T21:57:31.664Z,6.68
2023-01-26T22:00:05.482Z,6.10
2023-01-26T22:02:33.785Z,7.35
2023-01-26T22:05:01.209Z,7.70
2023-01-26T22:07:30.024Z,7.95
2023-01-26T22:09:57.368Z,8.88
2023-01-26T22:12:25.049Z,9.18
2023-01-26T22:14:52.612Z,8.98
2023-01-26T22:17:19.965Z,8.55
2023-01-26T22:19:47.294Z,8.07
2023-01-26T22:22:14.749Z,9.02
2023-01-26T22:24:42.184Z,8.82
2023-01-26T22:27:11.802Z,8.45
2023-01-26T22:29:39.489Z,8.60
2023-01-26T22:32:07.008Z,9.82
2023-01-26T22:34:34.485Z,8.95
2023-01-26T22:37:01.925Z,8.88
2023-01-26T22:39:29.193Z,10.23
2023-01-26T22:41:56.454Z,9.77
2023-01-26T22:44:25.150Z,9.88
2023-01-26T22:46:52.766Z,9.38
2023-01-26T22:49:20.044Z,9.98
2023-01-26T22:51:47.598Z,10.57
2023-01-26T22:54:14.895Z,9.60
2023-01-26T22:56:42.207Z,9.18
2023-01-26T22:59:09.913Z,9.05
2023-01-26T23:01:37.582Z,8.93
2023-01-26T23:04:05.334Z,9.23
2023-01-26T23:06:32.918Z,10.02
2023-01-26T23:09:02.793Z,8.60
2023-01-26T23:11:31.217Z,9.30
2023-01-26T23:13:59.280Z,9.50
2023-01-26T23:16:27.835Z,8.85
2023-01-26T23:18:57.148Z,8.98
2023-01-26T23:21:25.776Z,9.20
2023-01-26T23:23:53.498Z,8.50
2023-01-26T23:26:21.214Z,9.18
2023-01-26T23:28:48.813Z,8.27
2023-01-26T23:31:19.813Z,8.20
2023-01-26T23:33:47.468Z,7.32
2023-01-26T23:36:15.626Z,7.00
2023-01-26T23:38:45.668Z,6.68
2023-01-26T23:41:13.480Z,7.30
2023-01-26T23:43:40.824Z,6.60
2023-01-26T23:46:09.515Z,6.70
2023-01-26T23:48:37.230Z,6.57
2023-01-26T23:51:07.507Z,6.78
2023-01-26T23:53:35.069Z,7.03
2023-01-26T23:56:13.727Z,6.03
2023-01-26T23:58:41.281Z,5.38
